createdAt,value
2017-10-09T00:01:17.853Z,4.80
2017-10-09T00:03:47.555Z,3.90
2017-10-09T00:06:16.509Z,5.37
2017-10-09T00:08:45.493Z,4.20
2017-10-09T00:11:14.455Z,8.10
2017-10-09T00:13:43.387Z,5.60
2017-10-09T00:16:12.373Z,8.90
2017-10-09T00:18:41.303Z,5.77
2017-10-09T00:21:10.241Z,5.23
2017-10-09T00:23:39.599Z,5.73
2017-10-09T00:26:08.606Z,5.70
2017-10-09T00:28:37.542Z,3.90
2017-10-09T00:31:06.476Z,4.60
2017-10-09T00:33:35.426Z,4.13
2017-10-09T00:36:05.134Z,4.67
2017-10-09T00:38:34.527Z,5.33
2017-10-09T00:41:03.482Z,8.03
2017-10-09T00:43:32.389Z,6.20
2017-10-09T00:46:02.118Z,6.57
2017-10-09T00:48:31.060Z,5.20
2017-10-09T00:50:59.993Z,7.10
2017-10-09T00:53:29.712Z,9.90
2017-10-09T00:55:58.645Z,4.40
2017-10-09T00:58:27.605Z,7.20
2017-10-09T01:00:57.302Z,5.17
2017-10-09T01:03:26.240Z,6.83
2017-10-09T01:05:55.125Z,8.87
2017-10-09T01:08:24.488Z,6.43
2017-10-09T01:10:53.443Z,6.67
2017-10-09T01:13:22.377Z,9.03
2017-10-09T01:15:52.079Z,7.70
2017-10-09T01:18:21.460Z,8.33
2017-10-09T01:20:50.410Z,6.53
2017-10-09T01:23:19.741Z,4.47
2017-10-09T01:25:48.683Z,6.10
2017-10-09T01:28:18.396Z,5.20
2017-10-09T01:30:47.366Z,6.47
2017-10-09T01:33:16.688Z,6.77
2017-10-09T01:35:46.409Z,8.30
2017-10-09T01:38:15.356Z,8.13
2017-10-09T01:40:44.322Z,7.83
2017-10-09T01:43:13.281Z,8.60
2017-10-09T01:45:42.231Z,4.77
2017-10-09T01:48:11.213Z,3.77
2017-10-09T01:50:40.158Z,8.63
2017-10-09T01:53:09.483Z,6.30
2017-10-09T01:55:38.425Z,4.10
2017-10-09T01:58:07.343Z,5.43
2017-10-09T02:00:36.317Z,5.30
2017-10-09T02:03:05.998Z,4.97
2017-10-09T02:05:35.800Z,5.00
2017-10-09T02:08:05.496Z,4.30
2017-10-09T02:10:34.512Z,7.97
2017-10-09T02:13:03.415Z,3.33
2017-10-09T02:15:32.511Z,7.07
2017-10-09T02:18:02.194Z,5.23
2017-10-09T02:20:31.234Z,7.20
2017-10-09T02:23:00.559Z,3.53
2017-10-09T02:25:29.502Z,3.90
2017-10-09T02:27:58.483Z,3.67
2017-10-09T02:30:28.204Z,5.57
2017-10-09T02:32:57.571Z,6.60
2017-10-09T02:35:26.931Z,4.60
2017-10-09T02:37:56.592Z,7.10
2017-10-09T02:40:25.540Z,6.13
2017-10-09T02:42:54.487Z,4.37
2017-10-09T02:45:24.327Z,4.17
2017-10-09T02:47:53.635Z,6.20
2017-10-09T02:50:22.595Z,6.97
2017-10-09T02:52:51.512Z,6.27
2017-10-09T02:55:20.469Z,4.10
2017-10-09T02:57:49.445Z,6.50
2017-10-09T03:00:18.394Z,7.43
2017-10-09T03:02:47.342Z,7.30
2017-10-09T03:05:16.334Z,7.23
2017-10-09T03:07:46.042Z,6.53
2017-10-09T03:10:15.007Z,5.80
2017-10-09T03:12:44.044Z,5.80
2017-10-09T03:15:12.989Z,5.40
2017-10-09T03:17:41.913Z,5.90
2017-10-09T03:20:11.727Z,5.83
2017-10-09T03:22:46.251Z,8.27
2017-10-09T03:25:30.172Z,4.87
2017-10-09T03:27:59.077Z,11.73
2017-10-09T03:30:28.778Z,4.70
2017-10-09T03:32:57.855Z,4.10
2017-10-09T03:35:26.791Z,9.07
2017-10-09T03:37:56.599Z,7.17
2017-10-09T03:40:25.577Z,9.60
2017-10-09T03:42:55.285Z,5.93
2017-10-09T03:45:24.620Z,3.67
2017-10-09T03:47:53.576Z,7.13
2017-10-09T03:50:23.351Z,6.70
2017-10-09T03:52:52.288Z,6.00
2017-10-09T03:55:21.216Z,4.50
2017-10-09T03:57:50.683Z,5.83
2017-10-09T04:00:20.374Z,7.57
2017-10-09T04:02:50.091Z,6.90
2017-10-09T04:05:19.838Z,6.63
2017-10-09T04:07:49.558Z,4.93
2017-10-09T04:10:18.553Z,7.27
2017-10-09T04:12:47.496Z,4.73
2017-10-09T04:15:17.196Z,4.70
2017-10-09T04:17:46.583Z,5.80
2017-10-09T04:20:15.551Z,5.00
2017-10-09T04:22:44.900Z,3.37
2017-10-09T04:25:13.859Z,3.60
2017-10-09T04:27:42.846Z,4.77
2017-10-09T04:30:12.774Z,4.60
2017-10-09T04:32:41.811Z,6.60
2017-10-09T04:35:11.175Z,4.87
2017-10-09T04:37:40.124Z,7.87
2017-10-09T04:40:09.051Z,5.83
2017-10-09T04:42:38.072Z,4.70
2017-10-09T04:45:07.014Z,4.20
2017-10-09T04:47:35.949Z,7.70
2017-10-09T04:50:04.867Z,6.57
2017-10-09T04:52:34.653Z,7.90
2017-10-09T04:55:03.631Z,6.87
2017-10-09T04:57:32.569Z,5.90
2017-10-09T05:00:01.494Z,5.90
2017-10-09T05:02:31.221Z,6.10
2017-10-09T05:05:00.180Z,9.00
2017-10-09T05:07:29.106Z,4.87
2017-10-09T05:09:58.056Z,4.13
2017-10-09T05:12:26.995Z,7.20
2017-10-09T05:14:55.979Z,10.47
2017-10-09T05:17:24.920Z,6.40
2017-10-09T05:19:53.852Z,5.10
2017-10-09T05:22:23.644Z,5.33
2017-10-09T05:24:53.366Z,5.07
2017-10-09T05:27:23.149Z,7.03
2017-10-09T05:29:52.089Z,6.60
2017-10-09T05:32:21.029Z,5.03
2017-10-09T05:34:49.988Z,6.00
2017-10-09T05:37:18.913Z,7.43
2017-10-09T05:39:48.241Z,7.83
2017-10-09T05:42:17.180Z,5.10
2017-10-09T05:44:46.133Z,7.73
2017-10-09T05:47:15.064Z,6.10
2017-10-09T05:49:44.428Z,6.83
2017-10-09T05:52:13.844Z,5.10
2017-10-09T05:54:43.538Z,4.67
2017-10-09T05:57:12.901Z,9.23
2017-10-09T05:59:41.838Z,6.30
2017-10-09T06:02:10.786Z,8.57
2017-10-09T06:04:40.511Z,5.73
2017-10-09T06:07:10.418Z,9.37
2017-10-09T06:09:39.350Z,5.70
2017-10-09T06:12:08.280Z,8.20
2017-10-09T06:14:37.517Z,12.57
2017-10-09T06:17:06.476Z,6.37
2017-10-09T06:19:35.792Z,8.10
2017-10-09T06:22:05.532Z,6.43
2017-10-09T06:24:34.476Z,8.27
2017-10-09T06:27:03.415Z,7.50
2017-10-09T06:29:32.333Z,8.20
2017-10-09T06:32:01.698Z,9.80
2017-10-09T06:34:30.667Z,11.00
2017-10-09T06:37:00.421Z,6.20
2017-10-09T06:39:29.335Z,8.83
2017-10-09T06:41:58.344Z,10.17
2017-10-09T06:44:27.272Z,5.30
2017-10-09T06:46:57.009Z,6.53
2017-10-09T06:49:26.454Z,7.00
2017-10-09T06:51:55.794Z,14.97
2017-10-09T06:54:24.703Z,9.13
2017-10-09T06:56:53.666Z,9.90
2017-10-09T06:59:22.598Z,6.43
2017-10-09T07:01:51.550Z,6.43
2017-10-09T07:04:20.918Z,5.60
2017-10-09T07:06:49.952Z,6.90
2017-10-09T07:09:18.882Z,4.90
2017-10-09T07:11:49.439Z,6.90
2017-10-09T07:14:19.148Z,6.27
2017-10-09T07:16:48.568Z,8.77
2017-10-09T07:19:17.490Z,6.20
2017-10-09T07:21:46.437Z,7.10
2017-10-09T07:24:15.373Z,7.70
2017-10-09T07:26:44.328Z,7.87
2017-10-09T07:29:13.318Z,8.53
2017-10-09T07:31:42.244Z,8.67
2017-10-09T07:34:11.592Z,6.00
2017-10-09T07:36:40.530Z,10.43
2017-10-09T07:39:09.502Z,6.13
2017-10-09T07:41:38.437Z,7.80
2017-10-09T07:44:07.386Z,5.63
2017-10-09T07:46:36.570Z,7.23
2017-10-09T07:49:05.510Z,4.37
2017-10-09T07:51:35.071Z,6.27
2017-10-09T07:54:04.465Z,4.73
2017-10-09T07:56:34.173Z,4.13
2017-10-09T07:59:03.505Z,5.60
2017-10-09T08:01:32.445Z,4.13
2017-10-09T08:04:02.189Z,5.80
2017-10-09T08:06:31.506Z,3.70
2017-10-09T08:09:00.470Z,5.13
2017-10-09T08:11:29.843Z,4.20
2017-10-09T08:13:59.566Z,5.50
2017-10-09T08:16:28.490Z,6.57
2017-10-09T08:18:57.449Z,5.83
2017-10-09T08:21:26.371Z,3.67
2017-10-09T08:23:55.715Z,2.67
2017-10-09T08:26:24.616Z,4.03
2017-10-09T08:28:54.344Z,7.30
2017-10-09T08:31:23.273Z,3.50
2017-10-09T08:33:52.232Z,2.90
2017-10-09T08:36:21.201Z,7.73
2017-10-09T08:38:50.953Z,3.17
2017-10-09T08:41:19.897Z,3.50
2017-10-09T08:43:48.865Z,4.27
2017-10-09T08:51:26.614Z,5.10
2017-10-09T08:53:55.577Z,4.27
2017-10-09T08:56:24.605Z,4.03
2017-10-09T09:01:30.389Z,3.37
2017-10-09T09:14:18.681Z,4.27
2017-10-09T09:19:24.136Z,4.70
2017-10-09T09:21:53.475Z,4.17
2017-10-09T09:26:56.600Z,3.43
2017-10-09T09:29:25.720Z,3.03
2017-10-09T09:34:30.597Z,3.43
2017-10-09T09:36:59.601Z,5.33
2017-10-09T09:39:28.588Z,3.80
2017-10-09T09:47:07.607Z,5.37
2017-10-09T09:54:44.956Z,6.87
2017-10-09T09:57:14.812Z,3.50
2017-10-09T09:59:44.680Z,3.57
2017-10-09T10:02:13.641Z,3.23
2017-10-09T10:04:42.577Z,5.37
2017-10-09T10:07:12.947Z,3.10
2017-10-09T10:09:42.111Z,5.97
2017-10-09T10:12:12.011Z,5.20
2017-10-09T10:14:41.010Z,4.80
2017-10-09T10:17:10.005Z,5.50
2017-10-09T10:19:39.954Z,6.60
2017-10-09T10:22:10.325Z,3.37
2017-10-09T10:24:39.287Z,5.80
2017-10-09T10:27:08.782Z,6.93
2017-10-09T10:29:37.785Z,8.13
2017-10-09T10:32:07.509Z,6.43
2017-10-09T10:34:36.507Z,7.53
2017-10-09T10:37:05.589Z,5.10
2017-10-09T10:39:35.531Z,10.70
2017-10-09T10:42:04.531Z,5.83
2017-10-09T10:44:33.518Z,5.10
2017-10-09T10:47:02.467Z,7.03
2017-10-09T10:49:31.465Z,4.90
2017-10-09T10:52:00.565Z,8.10
2017-10-09T10:54:30.298Z,6.07
2017-10-09T10:56:59.388Z,6.13
2017-10-09T10:59:28.386Z,6.20
2017-10-09T11:01:57.400Z,7.90
2017-10-09T11:04:26.394Z,5.77
2017-10-09T11:06:55.402Z,11.70
2017-10-09T11:09:24.402Z,8.23
2017-10-09T11:11:53.488Z,5.50
2017-10-09T11:14:22.481Z,7.20
2017-10-09T11:16:51.666Z,8.67
2017-10-09T11:19:21.506Z,6.10
2017-10-09T11:21:52.091Z,8.33
2017-10-09T11:24:21.468Z,6.07
2017-10-09T11:26:50.458Z,6.67
2017-10-09T11:29:20.204Z,9.00
2017-10-09T11:31:50.122Z,10.37
2017-10-09T11:34:19.185Z,9.10
2017-10-09T11:36:48.173Z,11.20
2017-10-09T11:39:17.372Z,10.23
2017-10-09T11:41:46.849Z,14.50
2017-10-09T11:44:15.844Z,9.87
2017-10-09T11:46:46.391Z,11.33
2017-10-09T11:49:17.001Z,10.00
2017-10-09T11:51:47.697Z,12.03
2017-10-09T11:54:16.647Z,10.20
2017-10-09T11:56:45.621Z,18.50
2017-10-09T11:59:14.674Z,18.07
2017-10-09T12:01:43.822Z,15.13
2017-10-09T12:04:14.387Z,14.27
2017-10-09T12:06:43.386Z,13.67
2017-10-09T12:09:12.494Z,13.10
2017-10-09T12:11:41.482Z,16.67
2017-10-09T12:14:11.370Z,13.17
2017-10-09T12:16:40.715Z,14.10
2017-10-09T12:19:11.276Z,12.53
2017-10-09T12:21:40.289Z,11.50
2017-10-09T12:24:09.217Z,11.50
2017-10-09T12:26:38.685Z,11.50
2017-10-09T12:29:07.622Z,12.77
2017-10-09T12:31:37.351Z,9.80
2017-10-09T12:34:06.695Z,11.73
2017-10-09T12:36:35.654Z,11.03
2017-10-09T12:39:04.670Z,7.67
2017-10-09T12:41:34.393Z,9.80
2017-10-09T12:44:03.330Z,11.10
2017-10-09T12:46:32.754Z,10.57
2017-10-09T12:49:01.701Z,9.47
2017-10-09T12:51:31.452Z,13.23
2017-10-09T12:54:00.413Z,8.67
2017-10-09T12:56:30.146Z,11.80
2017-10-09T12:58:59.077Z,14.43
2017-10-09T13:01:29.574Z,8.47
2017-10-09T13:03:59.654Z,9.97
2017-10-09T13:06:29.438Z,9.97
2017-10-09T13:08:58.381Z,8.80
2017-10-09T13:11:27.755Z,9.30
2017-10-09T13:13:56.694Z,8.23
2017-10-09T13:16:25.648Z,7.13
2017-10-09T13:18:54.640Z,6.30
2017-10-09T13:21:24.444Z,6.03
2017-10-09T13:23:54.170Z,5.80
2017-10-09T13:26:23.479Z,7.10
2017-10-09T13:28:52.411Z,5.70
2017-10-09T13:31:21.382Z,5.33
2017-10-09T13:33:50.346Z,5.97
2017-10-09T13:36:19.698Z,5.47
2017-10-09T13:38:48.655Z,7.83
2017-10-09T13:41:18.403Z,5.53
2017-10-09T13:43:47.798Z,5.20
2017-10-09T13:46:16.779Z,6.73
2017-10-09T13:48:45.716Z,6.43
2017-10-09T13:53:48.819Z,6.37
2017-10-09T14:01:27.737Z,6.60
2017-10-09T14:06:31.429Z,8.10
2017-10-09T14:09:00.467Z,6.63
2017-10-09T14:11:29.417Z,5.80
2017-10-09T14:16:33.144Z,6.40
2017-10-09T14:19:02.133Z,5.70
2017-10-09T14:21:31.073Z,6.17
2017-10-09T14:24:00.807Z,6.00
2017-10-09T14:26:29.764Z,8.07
2017-10-09T14:28:59.524Z,6.27
2017-10-09T14:41:28.844Z,6.73
2017-10-09T14:43:58.608Z,7.00
2017-10-09T14:46:28.466Z,6.37
2017-10-09T14:48:58.209Z,7.20
2017-10-09T14:51:27.757Z,7.80
2017-10-09T14:53:58.772Z,7.07
2017-10-09T14:56:27.795Z,6.93
2017-10-09T14:58:58.652Z,7.60
2017-10-09T15:01:29.060Z,6.90
2017-10-09T15:03:58.804Z,7.40
2017-10-09T15:06:30.015Z,8.43
2017-10-09T15:08:59.468Z,9.90
2017-10-09T15:11:28.465Z,7.93
2017-10-09T15:13:59.372Z,7.10
2017-10-09T15:16:29.178Z,9.50
2017-10-09T15:18:59.110Z,9.53
2017-10-09T15:21:28.532Z,8.03
2017-10-09T15:23:58.541Z,7.90
2017-10-09T15:26:27.548Z,8.83
2017-10-09T15:28:56.588Z,7.90
2017-10-09T15:31:27.503Z,9.17
2017-10-09T15:33:56.483Z,9.90
2017-10-09T15:36:26.665Z,8.53
2017-10-09T15:38:57.025Z,9.40
2017-10-09T15:41:26.768Z,9.00
2017-10-09T15:43:56.672Z,10.00
2017-10-09T15:46:27.224Z,10.27
2017-10-09T15:48:56.233Z,10.50
2017-10-09T15:51:25.608Z,9.37
2017-10-09T15:53:55.383Z,9.13
2017-10-09T15:56:25.756Z,10.10
2017-10-09T15:58:55.429Z,10.00
2017-10-09T16:01:24.444Z,10.13
2017-10-09T16:03:53.637Z,12.77
2017-10-09T16:06:23.967Z,11.30
2017-10-09T16:08:53.724Z,15.53
2017-10-09T16:11:22.743Z,10.40
2017-10-09T16:13:52.717Z,11.80
2017-10-09T16:16:21.941Z,9.20
2017-10-09T16:18:51.021Z,10.17
2017-10-09T16:21:20.082Z,12.40
2017-10-09T16:23:49.172Z,11.07
2017-10-09T16:26:18.690Z,13.40
2017-10-09T16:28:47.999Z,11.07
2017-10-09T16:31:17.021Z,12.17
2017-10-09T16:33:46.962Z,12.63
2017-10-09T16:36:16.385Z,14.53
2017-10-09T16:38:45.823Z,13.37
2017-10-09T16:41:14.850Z,14.10
2017-10-09T16:43:45.383Z,16.87
2017-10-09T16:46:15.229Z,11.57
2017-10-09T16:48:44.579Z,12.17
2017-10-09T16:51:13.579Z,11.63
2017-10-09T16:53:42.546Z,12.90
2017-10-09T16:56:11.537Z,14.80
2017-10-09T16:58:40.505Z,13.67
2017-10-09T17:01:09.883Z,13.53
2017-10-09T17:03:39.607Z,17.90
2017-10-09T17:06:08.604Z,14.77
2017-10-09T17:08:37.575Z,15.10
2017-10-09T17:11:06.569Z,14.80
2017-10-09T17:13:35.572Z,16.00
2017-10-09T17:16:04.555Z,15.13
2017-10-09T17:18:33.942Z,15.63
2017-10-09T17:21:03.684Z,15.53
2017-10-09T17:23:33.253Z,14.07
2017-10-09T17:26:03.016Z,15.43
2017-10-09T17:28:32.769Z,14.53
2017-10-09T17:31:02.509Z,16.53
2017-10-09T17:33:32.628Z,19.40
2017-10-09T17:36:01.629Z,18.77
2017-10-09T17:38:31.788Z,15.77
2017-10-09T17:41:00.839Z,18.20
2017-10-09T17:43:29.792Z,18.60
2017-10-09T17:45:59.510Z,16.40
2017-10-09T17:48:28.466Z,14.53
2017-10-09T17:50:57.469Z,17.47
2017-10-09T17:53:26.436Z,19.63
2017-10-09T17:55:55.419Z,20.83
2017-10-09T17:58:24.401Z,17.57
2017-10-09T18:00:53.390Z,17.40
2017-10-09T18:03:22.368Z,18.03
2017-10-09T18:05:51.320Z,18.93
2017-10-09T18:08:20.309Z,17.43
2017-10-09T18:10:49.323Z,18.20
2017-10-09T18:13:18.698Z,15.47
2017-10-09T18:15:47.693Z,16.80
2017-10-09T18:18:16.733Z,16.00
2017-10-09T18:20:45.698Z,16.07
2017-10-09T18:23:15.457Z,17.70
2017-10-09T18:25:45.234Z,17.23
2017-10-09T18:28:14.615Z,20.47
2017-10-09T18:30:44.381Z,16.90
2017-10-09T18:33:13.340Z,18.30
2017-10-09T18:35:42.352Z,19.80
2017-10-09T18:38:11.385Z,20.90
2017-10-09T18:40:40.450Z,22.60
2017-10-09T18:43:09.460Z,23.13
2017-10-09T18:45:38.433Z,19.20
2017-10-09T18:48:07.448Z,20.50
2017-10-09T18:50:36.505Z,18.50
2017-10-09T18:53:05.518Z,23.67
2017-10-09T18:55:34.544Z,23.07
2017-10-09T18:58:04.294Z,20.93
2017-10-09T19:00:33.334Z,23.00
2017-10-09T19:03:02.326Z,23.83
2017-10-09T19:05:31.313Z,23.53
2017-10-09T19:08:00.337Z,23.37
2017-10-09T19:10:30.119Z,25.20
2017-10-09T19:12:59.536Z,22.10
2017-10-09T19:15:29.276Z,28.27
2017-10-09T19:17:58.291Z,26.20
2017-10-09T19:20:27.696Z,24.33
2017-10-09T19:22:56.704Z,22.60
2017-10-09T19:25:26.474Z,33.77
2017-10-09T19:27:55.479Z,30.23
2017-10-09T19:30:25.181Z,24.20
2017-10-09T19:32:54.341Z,27.40
2017-10-09T19:35:24.088Z,29.23
2017-10-09T19:37:53.463Z,30.77
2017-10-09T19:40:22.480Z,26.30
2017-10-09T19:42:51.478Z,26.70
2017-10-09T19:45:20.516Z,30.00
2017-10-09T19:47:49.551Z,31.50
2017-10-09T19:50:18.548Z,26.07
2017-10-09T19:52:47.565Z,29.20
2017-10-09T19:55:16.572Z,27.83
2017-10-09T19:57:45.601Z,28.00
2017-10-09T20:00:15.360Z,28.87
2017-10-09T20:02:44.752Z,29.60
2017-10-09T20:05:13.761Z,28.07
2017-10-09T20:07:42.772Z,27.73
2017-10-09T20:10:11.784Z,27.63
2017-10-09T20:12:41.515Z,26.80
2017-10-09T20:15:10.541Z,34.93
2017-10-09T20:17:39.526Z,33.33
2017-10-09T20:20:08.566Z,30.70
2017-10-09T20:22:38.381Z,31.57
2017-10-09T20:25:08.173Z,34.30
2017-10-09T20:27:38.098Z,35.77
2017-10-09T20:30:07.854Z,30.60
2017-10-09T20:32:36.916Z,30.57
2017-10-09T20:35:07.584Z,32.80
2017-10-09T20:37:36.580Z,31.43
2017-10-09T20:40:05.954Z,35.20
2017-10-09T20:42:35.734Z,28.90
2017-10-09T20:45:04.720Z,32.40
2017-10-09T20:47:33.717Z,34.20
2017-10-09T20:50:03.467Z,38.77
2017-10-09T20:52:32.528Z,34.80
2017-10-09T20:55:02.245Z,35.70
2017-10-09T20:57:32.063Z,35.47
2017-10-09T21:00:01.062Z,40.10
2017-10-09T21:02:30.416Z,45.03
2017-10-09T21:04:59.404Z,39.70
2017-10-09T21:07:28.369Z,37.80
2017-10-09T21:09:57.762Z,35.40
2017-10-09T21:12:26.762Z,43.07
2017-10-09T21:14:56.510Z,36.77
2017-10-09T21:17:25.480Z,43.20
2017-10-09T21:19:54.493Z,39.00
2017-10-09T21:22:23.449Z,39.00
2017-10-09T21:24:52.440Z,43.20
2017-10-09T21:27:21.690Z,39.50
2017-10-09T21:29:51.420Z,37.13
2017-10-09T21:32:20.408Z,47.40
2017-10-09T21:34:49.780Z,44.40
2017-10-09T21:37:18.832Z,43.43
2017-10-09T21:39:49.388Z,51.47
2017-10-09T21:42:18.507Z,47.50
2017-10-09T21:44:47.506Z,42.47
2017-10-09T21:47:17.254Z,46.97
2017-10-09T21:49:46.224Z,44.33
2017-10-09T21:52:15.221Z,49.10
2017-10-09T21:54:44.591Z,48.90
2017-10-09T21:57:13.605Z,46.00
2017-10-09T21:59:43.324Z,43.03
2017-10-09T22:02:12.309Z,44.40
2017-10-09T22:04:41.244Z,47.97
2017-10-09T22:07:10.810Z,48.43
2017-10-09T22:09:39.764Z,44.93
2017-10-09T22:12:09.569Z,43.20
2017-10-09T22:14:38.544Z,42.43
2017-10-09T22:17:07.537Z,41.33
2017-10-09T22:19:37.268Z,43.13
2017-10-09T22:22:06.657Z,43.50
2017-10-09T22:24:35.650Z,43.87
2017-10-09T22:27:04.637Z,46.77
2017-10-09T22:29:33.735Z,44.70
2017-10-09T22:32:02.697Z,47.67
2017-10-09T22:34:31.640Z,50.00
2017-10-09T22:37:01.427Z,51.77
2017-10-09T22:39:30.502Z,42.07
2017-10-09T22:41:59.467Z,56.07
2017-10-09T22:44:28.845Z,47.87
2017-10-09T22:46:58.614Z,49.50
2017-10-09T22:49:27.576Z,52.50
2017-10-09T22:51:56.558Z,40.83
2017-10-09T22:54:37.397Z,44.50
2017-10-09T22:57:06.360Z,41.50
2017-10-09T22:59:36.095Z,44.93
2017-10-09T23:02:05.451Z,43.10
2017-10-09T23:04:34.468Z,44.00
2017-10-09T23:07:03.478Z,46.97
2017-10-09T23:09:32.453Z,43.40
2017-10-09T23:12:02.184Z,48.70
2017-10-09T23:14:31.167Z,44.67
2017-10-09T23:17:00.578Z,42.90
2017-10-09T23:19:29.953Z,49.17
2017-10-09T23:21:59.354Z,44.57
2017-10-09T23:24:28.728Z,46.90
2017-10-09T23:26:58.454Z,52.23
2017-10-09T23:29:27.428Z,49.77
2017-10-09T23:31:56.784Z,50.73
2017-10-09T23:34:26.529Z,49.03
2017-10-09T23:36:55.494Z,46.43
2017-10-09T23:39:25.236Z,48.97
2017-10-09T23:41:54.566Z,55.70
2017-10-09T23:44:23.540Z,48.00
2017-10-09T23:46:52.533Z,48.30
2017-10-09T23:49:21.561Z,49.10
2017-10-09T23:51:50.557Z,47.23
2017-10-09T23:54:20.291Z,56.67
2017-10-09T23:56:49.296Z,47.27
2017-10-09T23:59:18.261Z,46.10
